createdAt,value
2022-10-11T00:01:35.700Z,10.20
2022-10-11T00:04:04.036Z,10.12
2022-10-11T00:06:32.430Z,10.05
2022-10-11T00:09:00.566Z,9.99
2022-10-11T00:11:29.966Z,9.88
2022-10-11T00:14:00.598Z,9.81
2022-10-11T00:16:28.607Z,9.70
2022-10-11T00:18:57.186Z,9.61
2022-10-11T00:21:25.213Z,9.50
2022-10-11T00:23:55.028Z,9.46
2022-10-11T00:26:23.188Z,9.34
2022-10-11T00:28:55.564Z,9.22
2022-10-11T00:31:29.901Z,9.13
2022-10-11T00:34:01.486Z,9.06
2022-10-11T00:36:29.826Z,8.96
2022-10-11T00:38:57.861Z,8.88
2022-10-11T00:41:26.176Z,8.75
2022-10-11T00:44:10.372Z,8.64
2022-10-11T00:46:44.099Z,8.57
2022-10-11T00:49:17.705Z,8.52
2022-10-11T00:51:50.414Z,8.44
2022-10-11T00:54:20.310Z,8.36
2022-10-11T00:56:53.270Z,8.27
2022-10-11T00:59:25.801Z,8.20
2022-10-11T01:01:58.507Z,8.14
2022-10-11T01:04:28.268Z,8.10
2022-10-11T01:07:01.372Z,8.00
2022-10-11T01:09:29.702Z,7.90
2022-10-11T01:12:04.712Z,7.93
2022-10-11T01:14:47.772Z,7.93
2022-10-11T01:17:23.823Z,7.86
2022-10-11T01:20:18.073Z,7.82
2022-10-11T01:23:19.837Z,7.76
2022-10-11T01:26:00.645Z,7.73
2022-10-11T01:28:46.175Z,7.72
2022-10-11T01:31:22.039Z,7.65
2022-10-11T01:33:53.219Z,7.61
2022-10-11T01:36:27.921Z,7.63
2022-10-11T01:39:00.134Z,7.59
2022-10-11T01:41:34.327Z,7.55
2022-10-11T01:44:05.840Z,7.50
2022-10-11T01:46:37.640Z,7.45
2022-10-11T01:49:07.178Z,7.44
2022-10-11T01:51:37.697Z,7.38
2022-10-11T01:54:13.634Z,7.38
2022-10-11T01:57:19.172Z,7.35
2022-10-11T01:59:57.302Z,7.28
2022-10-11T02:02:35.282Z,7.24
2022-10-11T02:05:08.348Z,7.21
2022-10-11T02:07:43.079Z,7.24
2022-10-11T02:10:17.710Z,7.24
2022-10-11T02:12:49.491Z,7.27
2022-10-11T02:15:18.643Z,7.35
2022-10-11T02:17:51.024Z,7.41
2022-10-11T02:20:20.660Z,7.48
2022-10-11T02:22:51.673Z,7.42
2022-10-11T02:25:24.147Z,7.35
2022-10-11T02:27:53.245Z,7.32
2022-10-11T02:30:21.571Z,7.25
2022-10-11T02:32:52.713Z,7.20
2022-10-11T02:35:22.087Z,7.15
2022-10-11T02:37:54.539Z,7.13
2022-10-11T02:40:27.877Z,7.10
2022-10-11T02:42:59.449Z,7.11
2022-10-11T02:45:31.779Z,7.07
2022-10-11T02:48:02.808Z,7.04
2022-10-11T02:50:31.031Z,7.01
2022-10-11T02:52:59.167Z,6.94
2022-10-11T02:55:27.319Z,6.93
2022-10-11T02:57:58.665Z,6.90
2022-10-11T03:00:27.643Z,6.92
2022-10-11T03:02:56.155Z,6.87
2022-10-11T03:05:25.980Z,6.82
2022-10-11T03:07:54.570Z,6.84
2022-10-11T03:10:22.594Z,6.89
2022-10-11T03:12:50.665Z,6.92
2022-10-11T03:15:18.829Z,6.99
2022-10-11T03:17:47.352Z,6.99
2022-10-11T03:20:15.993Z,7.00
2022-10-11T03:22:45.525Z,6.99
2022-10-11T03:25:14.579Z,6.96
2022-10-11T03:27:44.974Z,6.96
2022-10-11T03:30:18.016Z,6.96
2022-10-11T03:32:46.910Z,6.99
2022-10-11T03:35:15.463Z,6.97
2022-10-11T03:37:45.818Z,7.00
2022-10-11T03:40:14.732Z,6.94
2022-10-11T03:42:43.744Z,6.94
2022-10-11T03:45:12.020Z,6.94
2022-10-11T03:47:40.487Z,6.92
2022-10-11T03:50:10.398Z,6.94
2022-10-11T03:52:38.666Z,6.92
2022-10-11T03:55:11.061Z,6.92
2022-10-11T03:57:41.601Z,6.92
2022-10-11T04:00:10.848Z,6.93
2022-10-11T04:02:39.429Z,6.99
2022-10-11T04:05:10.041Z,6.97
2022-10-11T04:07:38.229Z,6.97
2022-10-11T04:10:09.170Z,6.96
2022-10-11T04:12:38.305Z,6.92
2022-10-11T04:15:07.835Z,6.93
2022-10-11T04:17:36.096Z,6.86
2022-10-11T04:20:04.574Z,6.87
2022-10-11T04:22:33.467Z,6.84
2022-10-11T04:25:01.747Z,6.87
2022-10-11T04:27:33.598Z,6.83
2022-10-11T04:30:02.177Z,6.82
2022-10-11T04:32:30.600Z,6.82
2022-10-11T04:35:04.050Z,6.86
2022-10-11T04:37:33.242Z,6.87
2022-10-11T04:40:01.768Z,6.94
2022-10-11T04:42:31.912Z,6.93
2022-10-11T04:45:00.399Z,6.92
2022-10-11T04:47:28.624Z,6.89
2022-10-11T04:49:56.833Z,6.93
2022-10-11T04:52:26.844Z,6.93
2022-10-11T04:54:56.010Z,6.92
2022-10-11T04:57:24.034Z,6.86
2022-10-11T04:59:53.539Z,6.82
2022-10-11T05:02:21.782Z,6.84
2022-10-11T05:04:49.946Z,6.86
2022-10-11T05:07:18.151Z,6.90
2022-10-11T05:09:46.265Z,6.90
2022-10-11T05:12:14.532Z,6.92
2022-10-11T05:14:42.729Z,6.84
2022-10-11T05:17:12.132Z,6.89
2022-10-11T05:19:40.272Z,6.97
2022-10-11T05:22:08.588Z,7.00
2022-10-11T05:24:38.567Z,7.04
2022-10-11T05:27:08.428Z,7.05
2022-10-11T05:29:37.745Z,7.10
2022-10-11T05:32:06.479Z,7.11
2022-10-11T05:34:35.849Z,7.21
2022-10-11T05:37:04.200Z,7.24
2022-10-11T05:39:32.388Z,7.28
2022-10-11T05:42:00.575Z,7.34
2022-10-11T05:44:28.745Z,7.40
2022-10-11T05:46:56.847Z,7.42
2022-10-11T05:49:24.952Z,7.45
2022-10-11T05:51:54.399Z,7.47
2022-10-11T05:54:23.092Z,7.52
2022-10-11T05:56:53.482Z,7.58
2022-10-11T05:59:24.051Z,7.63
2022-10-11T06:01:55.427Z,7.76
2022-10-11T06:04:24.783Z,7.87
2022-10-11T06:06:54.165Z,8.02
2022-10-11T06:09:22.515Z,8.13
2022-10-11T06:11:51.063Z,8.29
2022-10-11T06:14:20.421Z,8.45
2022-10-11T06:16:48.864Z,8.67
2022-10-11T06:19:16.978Z,8.86
2022-10-11T06:21:46.006Z,9.09
2022-10-11T06:24:16.265Z,9.40
2022-10-11T06:26:44.406Z,9.67
2022-10-11T06:29:12.454Z,9.94
2022-10-11T06:31:41.025Z,10.10
2022-10-11T06:34:09.427Z,10.30
2022-10-11T06:36:37.744Z,10.55
2022-10-11T06:39:06.232Z,10.67
2022-10-11T06:41:35.830Z,10.83
2022-10-11T06:44:04.173Z,11.05
2022-10-11T06:46:33.221Z,11.25
2022-10-11T06:49:01.283Z,11.45
2022-10-11T06:51:31.616Z,11.62
2022-10-11T06:54:01.781Z,11.84
2022-10-11T06:56:31.370Z,12.07
2022-10-11T06:59:01.803Z,12.32
2022-10-11T07:01:31.400Z,12.55
2022-10-11T07:04:01.714Z,12.75
2022-10-11T07:06:30.744Z,12.91
2022-10-11T07:09:00.950Z,13.13
2022-10-11T07:11:30.111Z,13.40
2022-10-11T07:14:01.381Z,13.58
2022-10-11T07:16:29.911Z,13.81
2022-10-11T07:19:00.911Z,14.03
2022-10-11T07:21:30.391Z,14.31
2022-10-11T07:23:58.671Z,14.41
2022-10-11T07:26:26.965Z,14.45
2022-10-11T07:28:56.382Z,14.60
2022-10-11T07:31:27.078Z,14.81
2022-10-11T07:33:55.076Z,14.98
2022-10-11T07:36:24.766Z,15.15
2022-10-11T07:38:53.375Z,15.30
2022-10-11T07:41:57.384Z,15.49
2022-10-11T07:44:40.216Z,15.68
2022-10-11T07:47:18.504Z,15.87
2022-10-11T07:49:49.263Z,15.98
2022-10-11T07:52:27.407Z,16.14
2022-10-11T07:54:57.931Z,16.19
2022-10-11T07:57:27.640Z,16.25
2022-10-11T07:59:59.106Z,16.36
2022-10-11T08:02:28.389Z,16.59
2022-10-11T08:04:56.737Z,16.66
2022-10-11T08:07:26.899Z,16.74
2022-10-11T08:09:55.400Z,16.90
2022-10-11T08:12:23.809Z,17.07
2022-10-11T08:14:53.317Z,17.21
2022-10-11T08:17:21.749Z,17.36
2022-10-11T08:19:54.194Z,17.43
2022-10-11T08:22:25.513Z,17.49
2022-10-11T08:24:54.450Z,17.66
2022-10-11T08:27:23.064Z,17.76
2022-10-11T08:29:51.470Z,17.89
2022-10-11T08:32:20.827Z,17.87
2022-10-11T08:34:49.639Z,17.89
2022-10-11T08:37:20.010Z,17.94
2022-10-11T08:39:48.043Z,18.16
2022-10-11T08:42:20.741Z,18.31
2022-10-11T08:45:10.087Z,18.44
2022-10-11T08:47:41.282Z,18.66
2022-10-11T08:50:18.332Z,18.90
2022-10-11T08:52:50.353Z,19.08
2022-10-11T08:55:21.323Z,19.20
2022-10-11T08:57:53.861Z,19.28
2022-10-11T09:00:22.952Z,19.30
2022-10-11T09:03:07.954Z,19.33
2022-10-11T09:05:52.261Z,19.36
2022-10-11T09:08:27.166Z,19.43
2022-10-11T09:11:00.974Z,19.44
2022-10-11T09:13:51.942Z,19.45
2022-10-11T09:16:28.506Z,19.55
2022-10-11T09:19:28.988Z,19.78
2022-10-11T09:22:02.332Z,19.85
2022-10-11T09:24:45.702Z,20.02
2022-10-11T09:27:50.378Z,20.15
2022-10-11T09:30:19.115Z,20.10
2022-10-11T09:32:52.009Z,20.22
2022-10-11T09:35:24.173Z,20.23
2022-10-11T09:37:58.639Z,20.08
2022-10-11T09:40:38.746Z,20.13
2022-10-11T09:43:07.297Z,20.20
2022-10-11T09:45:36.091Z,20.23
2022-10-11T09:48:06.724Z,20.26
2022-10-11T09:50:35.488Z,20.34
2022-10-11T09:53:07.746Z,20.44
2022-10-11T09:55:37.776Z,20.55
2022-10-11T09:58:06.864Z,20.75
2022-10-11T10:00:35.281Z,20.88
2022-10-11T10:03:06.739Z,20.84
2022-10-11T10:05:38.607Z,20.68
2022-10-11T10:08:25.310Z,20.63
2022-10-11T10:11:05.969Z,20.65
2022-10-11T10:13:46.231Z,20.64
2022-10-11T10:16:24.741Z,20.63
2022-10-11T10:18:55.619Z,20.48
2022-10-11T10:21:29.715Z,20.57
2022-10-11T10:24:00.167Z,20.64
2022-10-11T10:26:31.221Z,20.65
2022-10-11T10:29:02.723Z,20.77
2022-10-11T10:32:01.541Z,20.87
2022-10-11T10:34:29.812Z,20.99
2022-10-11T10:37:01.894Z,20.98
2022-10-11T10:39:40.960Z,21.01
2022-10-11T10:42:17.139Z,21.12
2022-10-11T10:44:46.438Z,21.08
2022-10-11T10:47:20.710Z,21.05
2022-10-11T10:49:57.458Z,20.80
2022-10-11T10:52:49.558Z,20.64
2022-10-11T10:55:27.338Z,20.64
2022-10-11T10:58:07.164Z,20.71
2022-10-11T11:00:41.388Z,20.78
2022-10-11T11:03:16.120Z,20.80
2022-10-11T11:05:48.782Z,20.78
2022-10-11T11:08:40.686Z,20.88
2022-10-11T11:11:19.768Z,20.80
2022-10-11T11:13:55.243Z,20.43
2022-10-11T11:16:33.895Z,20.30
2022-10-11T11:19:08.950Z,20.16
2022-10-11T11:21:47.011Z,19.81
2022-10-11T11:24:22.845Z,19.44
2022-10-11T11:26:55.450Z,19.11
2022-10-11T11:29:35.671Z,18.85
2022-10-11T11:32:17.263Z,18.41
2022-10-11T11:34:50.230Z,18.28
2022-10-11T11:37:25.471Z,18.27
2022-10-11T11:39:56.899Z,18.32
2022-10-11T11:42:32.081Z,18.37
2022-10-11T11:45:05.252Z,18.42
2022-10-11T11:47:35.098Z,18.56
2022-10-11T11:50:08.088Z,18.89
2022-10-11T11:52:38.808Z,19.30
2022-10-11T11:55:12.211Z,19.50
2022-10-11T11:57:51.035Z,19.47
2022-10-11T12:00:29.332Z,19.48
2022-10-11T12:03:00.096Z,19.41
2022-10-11T12:05:30.575Z,19.23
2022-10-11T12:08:02.097Z,18.97
2022-10-11T12:10:34.197Z,18.82
2022-10-11T12:13:08.925Z,18.92
2022-10-11T12:15:38.361Z,19.10
2022-10-11T12:18:15.460Z,19.27
2022-10-11T12:20:44.709Z,19.37
2022-10-11T12:23:47.892Z,19.36
2022-10-11T12:26:35.389Z,19.41
2022-10-11T12:29:28.520Z,19.43
2022-10-11T12:32:55.073Z,19.45
2022-10-11T12:35:52.220Z,19.41
2022-10-11T12:38:23.909Z,19.18
2022-10-11T12:40:54.782Z,18.87
2022-10-11T12:43:30.066Z,18.53
2022-10-11T12:45:58.345Z,18.21
2022-10-11T12:48:43.002Z,17.94
2022-10-11T12:51:28.742Z,17.72
2022-10-11T12:54:26.012Z,17.52
2022-10-11T12:57:08.371Z,17.36
2022-10-11T12:59:42.870Z,17.18
2022-10-11T13:02:28.849Z,17.05
2022-10-11T13:05:08.829Z,16.94
2022-10-11T13:07:42.268Z,16.67
2022-10-11T13:10:18.429Z,16.49
2022-10-11T13:12:48.652Z,16.33
2022-10-11T13:15:19.615Z,16.23
2022-10-11T13:17:49.000Z,16.08
2022-10-11T13:20:19.708Z,15.95
2022-10-11T13:22:53.220Z,15.81
2022-10-11T13:25:22.982Z,15.74
2022-10-11T13:27:55.250Z,15.67
2022-10-11T13:30:27.595Z,15.58
2022-10-11T13:32:55.512Z,15.57
2022-10-11T13:35:28.892Z,15.53
2022-10-11T13:37:58.869Z,15.53
2022-10-11T13:40:30.878Z,15.50
2022-10-11T13:42:59.879Z,15.49
2022-10-11T13:45:30.925Z,15.46
2022-10-11T13:47:59.393Z,15.42
2022-10-11T13:50:32.342Z,15.39
2022-10-11T13:53:03.834Z,15.33
2022-10-11T13:55:34.534Z,15.30
2022-10-11T13:58:04.265Z,15.25
2022-10-11T14:00:35.578Z,15.22
2022-10-11T14:03:06.859Z,15.16
2022-10-11T14:05:37.369Z,15.16
2022-10-11T14:08:09.132Z,15.20
2022-10-11T14:10:38.941Z,15.22
2022-10-11T14:13:21.084Z,15.22
2022-10-11T14:16:00.021Z,15.16
2022-10-11T14:18:42.628Z,15.09
2022-10-11T14:21:34.895Z,14.99
2022-10-11T14:24:06.910Z,14.92
2022-10-11T14:26:37.013Z,14.84
2022-10-11T14:29:08.052Z,14.75
2022-10-11T14:31:41.525Z,14.72
2022-10-11T14:34:16.399Z,14.68
2022-10-11T14:36:45.030Z,14.61
2022-10-11T14:39:19.954Z,14.54
2022-10-11T14:41:48.667Z,14.47
2022-10-11T14:44:22.392Z,14.45
2022-10-11T14:46:54.881Z,14.40
2022-10-11T14:49:25.314Z,14.36
2022-10-11T14:51:57.061Z,14.33
2022-10-11T14:54:30.636Z,14.30
2022-10-11T14:57:03.946Z,14.26
2022-10-11T14:59:38.388Z,14.24
2022-10-11T15:02:08.264Z,14.19
2022-10-11T15:04:37.980Z,14.13
2022-10-11T15:07:06.180Z,14.09
2022-10-11T15:09:39.023Z,14.05
2022-10-11T15:12:08.438Z,14.03
2022-10-11T15:14:36.499Z,13.93
2022-10-11T15:17:05.150Z,13.90
2022-10-11T15:19:33.439Z,13.85
2022-10-11T15:22:06.140Z,13.81
2022-10-11T15:24:36.129Z,13.72
2022-10-11T15:27:04.686Z,13.65
2022-10-11T15:29:33.391Z,13.59
2022-10-11T15:32:05.259Z,13.54
2022-10-11T15:34:34.317Z,13.47
2022-10-11T15:37:03.766Z,13.41
2022-10-11T15:39:33.798Z,13.32
2022-10-11T15:42:03.381Z,13.24
2022-10-11T15:44:36.330Z,13.14
2022-10-11T15:47:04.760Z,13.07
2022-10-11T15:49:41.456Z,13.00
2022-10-11T15:52:09.809Z,12.91
2022-10-11T15:54:38.118Z,12.83
2022-10-11T15:57:08.046Z,12.76
2022-10-11T15:59:36.067Z,12.66
2022-10-11T16:02:05.178Z,12.62
2022-10-11T16:04:34.620Z,12.52
2022-10-11T16:07:03.265Z,12.49
2022-10-11T16:09:32.716Z,12.44
2022-10-11T16:12:00.990Z,12.33
2022-10-11T16:14:30.653Z,12.28
2022-10-11T16:17:01.767Z,12.17
2022-10-11T16:19:29.726Z,12.10
2022-10-11T16:21:58.054Z,12.00
2022-10-11T16:24:27.581Z,11.89
2022-10-11T16:26:55.873Z,11.80
2022-10-11T16:29:26.096Z,11.71
2022-10-11T16:31:55.415Z,11.60
2022-10-11T16:34:23.767Z,11.49
2022-10-11T16:36:57.885Z,11.39
2022-10-11T16:39:28.710Z,11.28
2022-10-11T16:41:57.109Z,11.16
2022-10-11T16:44:28.156Z,10.99
2022-10-11T16:46:57.791Z,10.85
2022-10-11T16:49:28.332Z,10.80
2022-10-11T16:51:59.037Z,10.71
2022-10-11T16:54:29.458Z,10.63
2022-10-11T16:56:58.147Z,10.53
2022-10-11T16:59:27.749Z,10.45
2022-10-11T17:01:58.607Z,10.37
2022-10-11T17:04:26.965Z,10.23
2022-10-11T17:06:55.215Z,10.15
2022-10-11T17:09:25.392Z,10.06
2022-10-11T17:11:57.381Z,9.99
2022-10-11T17:14:25.815Z,9.95
2022-10-11T17:16:55.211Z,9.84
2022-10-11T17:19:24.543Z,9.78
2022-10-11T17:21:53.963Z,9.62
2022-10-11T17:24:22.411Z,9.57
2022-10-11T17:26:57.634Z,9.48
2022-10-11T17:29:25.911Z,9.39
2022-10-11T17:31:55.412Z,9.33
2022-10-11T17:34:30.244Z,9.26
2022-10-11T17:36:58.437Z,9.20
2022-10-11T17:39:29.698Z,9.15
2022-10-11T17:42:03.470Z,9.09
2022-10-11T17:44:32.866Z,9.03
2022-10-11T17:47:03.171Z,8.96
2022-10-11T17:49:35.381Z,8.95
2022-10-11T17:52:03.557Z,8.96
2022-10-11T17:54:32.326Z,8.95
2022-10-11T17:57:03.580Z,8.90
2022-10-11T17:59:34.499Z,8.90
2022-10-11T18:02:04.529Z,8.92
2022-10-11T18:04:35.476Z,8.89
2022-10-11T18:07:03.582Z,8.81
2022-10-11T18:09:32.623Z,8.78
2022-10-11T18:12:01.833Z,8.71
2022-10-11T18:14:30.183Z,8.64
2022-10-11T18:16:58.740Z,8.57
2022-10-11T18:19:30.125Z,8.50
2022-10-11T18:22:06.847Z,8.42
2022-10-11T18:24:36.433Z,8.37
2022-10-11T18:27:07.368Z,8.31
2022-10-11T18:29:35.446Z,8.40
2022-10-11T18:32:05.296Z,8.40
2022-10-11T18:37:28.196Z,8.36
2022-10-11T18:39:56.540Z,8.24
2022-10-11T18:42:25.977Z,8.19
2022-10-11T18:44:54.729Z,8.09
2022-10-11T18:47:23.063Z,8.03
2022-10-11T18:49:51.333Z,7.99
2022-10-11T18:52:22.206Z,7.93
2022-10-11T18:54:51.683Z,7.85
2022-10-11T18:57:19.805Z,7.82
2022-10-11T18:59:49.174Z,7.82
2022-10-11T19:02:24.635Z,7.76
2022-10-11T19:04:55.574Z,7.73
2022-10-11T19:07:24.133Z,7.65
2022-10-11T19:09:53.749Z,7.58
2022-10-11T19:12:21.999Z,7.52
2022-10-11T19:14:50.990Z,7.58
2022-10-11T19:17:22.610Z,7.61
2022-10-11T19:19:51.453Z,7.58
2022-10-11T19:22:20.097Z,7.62
2022-10-11T19:24:51.051Z,7.65
2022-10-11T19:27:20.847Z,7.68
2022-10-11T19:29:53.142Z,7.66
2022-10-11T19:32:21.720Z,7.66
2022-10-11T19:34:49.829Z,7.65
2022-10-11T19:37:18.221Z,7.65
2022-10-11T19:39:46.566Z,7.62
2022-10-11T19:42:15.242Z,7.58
2022-10-11T19:44:44.465Z,7.51
2022-10-11T19:47:13.097Z,7.45
2022-10-11T19:49:41.116Z,7.40
2022-10-11T19:52:09.658Z,7.38
2022-10-11T19:54:37.990Z,7.31
2022-10-11T19:57:06.771Z,7.25
2022-10-11T19:59:34.971Z,7.23
2022-10-11T20:02:04.983Z,7.20
2022-10-11T20:04:51.655Z,7.14
2022-10-11T20:07:20.995Z,7.10
2022-10-11T20:09:49.502Z,7.03
2022-10-11T20:12:17.886Z,6.99
2022-10-11T20:14:46.187Z,6.94
2022-10-11T20:17:16.354Z,6.87
2022-10-11T20:19:45.774Z,6.80
2022-10-11T20:22:14.237Z,6.72
2022-10-11T20:24:42.315Z,6.66
2022-10-11T20:27:10.516Z,6.68
2022-10-11T20:29:38.846Z,6.61
2022-10-11T20:32:07.558Z,6.57
2022-10-11T20:34:39.510Z,6.52
2022-10-11T20:37:07.484Z,6.49
2022-10-11T20:39:36.059Z,6.42
2022-10-11T20:42:04.702Z,6.38
2022-10-11T20:44:32.757Z,6.49
2022-10-11T20:47:04.043Z,6.55
2022-10-11T20:49:32.561Z,6.59
2022-10-11T20:52:02.618Z,6.66
2022-10-11T20:54:34.863Z,6.68
2022-10-11T20:57:03.118Z,6.62
2022-10-11T20:59:31.489Z,6.56
2022-10-11T21:01:59.440Z,6.55
2022-10-11T21:04:28.448Z,6.52
2022-10-11T21:06:56.659Z,6.48
2022-10-11T21:09:27.188Z,6.44
2022-10-11T21:11:55.446Z,6.36
2022-10-11T21:14:23.475Z,6.31
2022-10-11T21:16:52.715Z,6.31
2022-10-11T21:19:22.414Z,6.32
2022-10-11T21:21:53.795Z,6.35
2022-10-11T21:24:22.685Z,6.44
2022-10-11T21:26:53.293Z,6.46
2022-10-11T21:29:23.282Z,6.42
2022-10-11T21:31:51.566Z,6.44
2022-10-11T21:34:19.601Z,6.41
2022-10-11T21:36:47.767Z,6.35
2022-10-11T21:39:16.383Z,6.26
2022-10-11T21:41:44.583Z,6.21
2022-10-11T21:44:13.930Z,6.14
2022-10-11T21:49:31.747Z,6.08
2022-10-11T21:52:00.475Z,6.05
2022-10-11T21:54:28.517Z,6.08
2022-10-11T21:56:56.855Z,6.08
2022-10-11T21:59:26.312Z,6.04
2022-10-11T22:02:00.780Z,6.01
2022-10-11T22:04:30.448Z,5.97
2022-10-11T22:06:58.831Z,5.90
2022-10-11T22:09:27.782Z,5.82
2022-10-11T22:11:55.958Z,5.74
2022-10-11T22:14:25.133Z,5.67
2022-10-11T22:16:55.086Z,5.66
2022-10-11T22:19:23.924Z,5.59
2022-10-11T22:21:52.275Z,5.53
2022-10-11T22:24:20.349Z,5.60
2022-10-11T22:26:48.853Z,5.67
2022-10-11T22:29:17.077Z,5.71
2022-10-11T22:31:45.123Z,5.70
2022-10-11T22:34:15.869Z,5.74
2022-10-11T22:36:44.287Z,5.73
2022-10-11T22:39:13.507Z,5.65
2022-10-11T22:41:41.808Z,5.52
2022-10-11T22:44:10.240Z,5.46
2022-10-11T22:46:40.326Z,5.46
2022-10-11T22:49:08.311Z,5.46
2022-10-11T22:51:38.285Z,5.45
2022-10-11T22:54:06.616Z,5.46
2022-10-11T22:56:35.204Z,5.47
2022-10-11T22:59:03.201Z,5.47
2022-10-11T23:01:31.231Z,5.50
2022-10-11T23:03:59.575Z,5.52
2022-10-11T23:06:27.547Z,5.52
2022-10-11T23:08:57.076Z,5.47
2022-10-11T23:11:25.658Z,5.43
2022-10-11T23:13:54.574Z,5.31
2022-10-11T23:16:22.707Z,5.26
2022-10-11T23:18:53.211Z,5.21
2022-10-11T23:21:21.380Z,5.18
2022-10-11T23:23:49.780Z,5.14
2022-10-11T23:26:21.311Z,5.18
2022-10-11T23:28:54.814Z,5.11
2022-10-11T23:31:22.990Z,5.01
2022-10-11T23:33:51.289Z,4.94
2022-10-11T23:36:21.552Z,4.87
2022-10-11T23:38:51.394Z,4.85
2022-10-11T23:41:22.915Z,4.84
2022-10-11T23:43:50.970Z,4.83
2022-10-11T23:46:19.248Z,4.87
2022-10-11T23:48:47.269Z,4.83
2022-10-11T23:51:15.772Z,4.74
2022-10-11T23:53:44.034Z,4.73
2022-10-11T23:56:13.716Z,4.71
2022-10-11T23:58:44.845Z,4.68
